Time;durP1;ratioP1;P1;durP2;ratioP2;P2;SDS_P1;SDS_P2;PMS_P1;PMS_P2;Temp;Humidity;BMP_temperature;BMP_pressure;BME280_temperature;BME280_humidity;BME280_pressure;Samples;Min_cycle;Max_cycle;Signal;HPM_P1;HPM_P2
2023/01/23 00:01:41;;;;;;;18.20;11.80;;;2.90;99.90;;;;;;6208396;23;20071;-90
2023/01/23 00:04:07;;;;;;;20.35;12.60;;;2.90;99.90;;;;;;6219396;23;20027;-90
2023/01/23 00:06:33;;;;;;;20.92;11.85;;;2.90;99.90;;;;;;6191430;23;20039;-89
2023/01/23 00:08:58;;;;;;;24.77;15.98;;;2.90;99.90;;;;;;6191485;23;20034;-90
2023/01/23 00:11:27;;;;;;;16.42;11.20;;;2.90;99.90;;;;;;6190834;23;20004;-89
2023/01/23 00:13:53;;;;;;;22.30;11.65;;;2.90;99.90;;;;;;6191280;23;20012;-89
2023/01/23 00:16:20;;;;;;;29.75;20.00;;;2.90;99.90;;;;;;6216452;23;20016;-90
2023/01/23 00:18:47;;;;;;;18.92;11.15;;;2.90;99.90;;;;;;6190217;23;20323;-88
2023/01/23 00:21:20;;;;;;;20.90;12.27;;;2.90;99.90;;;;;;6191797;23;20013;-89
2023/01/23 00:23:47;;;;;;;25.07;14.53;;;2.90;99.90;;;;;;6191949;23;20008;-90
2023/01/23 00:26:16;;;;;;;34.95;19.73;;;2.90;99.90;;;;;;6191895;23;20069;-90
2023/01/23 00:28:43;;;;;;;23.17;13.73;;;3.20;99.90;;;;;;6191545;23;20297;-89
2023/01/23 00:31:12;;;;;;;17.08;10.68;;;2.90;99.90;;;;;;6190895;23;20059;-89
2023/01/23 00:33:39;;;;;;;18.23;10.68;;;2.80;99.90;;;;;;6216131;23;20093;-90
2023/01/23 00:36:05;;;;;;;16.70;10.45;;;2.90;99.90;;;;;;6216907;23;20023;-90
2023/01/23 00:38:30;;;;;;;24.45;10.98;;;2.90;99.90;;;;;;6216175;23;20017;-90
2023/01/23 00:40:56;;;;;;;17.00;10.40;;;2.90;99.90;;;;;;6191447;23;20027;-89
2023/01/23 00:43:23;;;;;;;16.67;10.90;;;2.90;99.90;;;;;;6216846;23;20027;-88
2023/01/23 00:45:49;;;;;;;17.13;10.85;;;2.90;99.90;;;;;;6191155;23;20024;-90
2023/01/23 00:48:15;;;;;;;17.23;10.43;;;2.90;99.90;;;;;;6198508;23;20048;-90
2023/01/23 00:50:40;;;;;;;17.98;10.65;;;2.90;99.90;;;;;;6229331;23;20050;-89
2023/01/23 00:53:06;;;;;;;16.08;10.90;;;2.90;99.90;;;;;;6193938;23;20043;-90
2023/01/23 00:55:32;;;;;;;19.95;11.30;;;2.90;99.90;;;;;;6190723;23;20012;-90
2023/01/23 00:57:58;;;;;;;19.17;11.07;;;2.90;99.90;;;;;;6216284;23;20043;-90
2023/01/23 01:00:24;;;;;;;18.73;11.07;;;2.90;99.90;;;;;;6216787;23;20013;-89
2023/01/23 01:02:50;;;;;;;15.38;10.55;;;2.90;99.90;;;;;;6190104;23;20009;-89
2023/01/23 01:05:17;;;;;;;16.25;10.23;;;2.90;99.90;;;;;;6216837;23;20015;-90
2023/01/23 01:07:44;;;;;;;18.77;11.25;;;2.90;99.90;;;;;;6216677;23;20038;-90
2023/01/23 01:10:10;;;;;;;16.50;11.13;;;2.90;99.90;;;;;;6191305;23;20393;-89
2023/01/23 01:12:37;;;;;;;21.40;11.13;;;2.90;99.90;;;;;;6216763;23;20019;-90
2023/01/23 01:15:03;;;;;;;18.92;11.27;;;2.90;99.90;;;;;;6216057;23;20136;-90
2023/01/23 01:17:29;;;;;;;18.70;10.95;;;2.90;99.90;;;;;;6191618;23;20009;-90
2023/01/23 01:19:54;;;;;;;18.08;11.23;;;2.90;99.90;;;;;;6190628;23;20040;-90
2023/01/23 01:22:20;;;;;;;18.73;10.95;;;2.90;99.90;;;;;;6191175;23;20083;-89
2023/01/23 01:24:45;;;;;;;17.92;11.68;;;2.90;99.90;;;;;;6190943;23;20012;-90
2023/01/23 01:27:11;;;;;;;19.63;11.80;;;2.90;99.90;;;;;;6191293;23;20016;-88
2023/01/23 01:29:37;;;;;;;19.88;11.57;;;2.90;99.90;;;;;;6215623;23;20312;-90
2023/01/23 01:32:03;;;;;;;16.48;11.73;;;2.90;99.90;;;;;;6215639;23;20008;-90
2023/01/23 01:34:28;;;;;;;17.48;11.43;;;2.90;99.90;;;;;;6191526;23;20036;-89
2023/01/23 01:36:54;;;;;;;21.35;12.15;;;2.90;99.90;;;;;;6201824;23;20012;-90
2023/01/23 01:39:20;;;;;;;21.45;11.82;;;2.90;99.90;;;;;;6225056;23;20023;-90
2023/01/23 01:41:45;;;;;;;20.83;11.57;;;2.90;99.90;;;;;;6217447;23;20465;-90
2023/01/23 01:44:19;;;;;;;22.13;11.15;;;2.90;99.90;;;;;;6217922;23;20040;-90
2023/01/23 01:46:45;;;;;;;22.67;12.23;;;2.90;99.90;;;;;;6192402;23;20008;-90
2023/01/23 01:49:28;;;;;;;17.88;11.55;;;2.90;99.90;;;;;;6193135;23;20040;-90
2023/01/23 01:51:56;;;;;;;18.85;12.07;;;2.90;99.90;;;;;;6193592;23;20050;-89
2023/01/23 01:54:32;;;;;;;17.38;12.00;;;2.90;99.90;;;;;;6193313;23;20013;-89
2023/01/23 01:57:00;;;;;;;19.38;11.85;;;2.80;99.90;;;;;;6219259;23;20031;-90
2023/01/23 01:59:29;;;;;;;17.17;12.18;;;2.90;99.90;;;;;;6193584;23;20008;-89
2023/01/23 02:02:10;;;;;;;24.50;11.93;;;2.90;99.90;;;;;;6192280;23;20065;-90
2023/01/23 02:04:39;;;;;;;20.90;12.52;;;2.90;99.90;;;;;;6218967;23;20017;-90
2023/01/23 02:07:16;;;;;;;17.85;12.52;;;2.90;99.90;;;;;;6193048;23;20016;-89
2023/01/23 02:09:42;;;;;;;19.90;12.65;;;2.80;99.90;;;;;;6218002;23;20291;-90
2023/01/23 02:12:08;;;;;;;20.40;12.40;;;2.80;99.90;;;;;;6192879;23;20378;-89
2023/01/23 02:14:33;;;;;;;19.52;12.20;;;2.90;99.90;;;;;;6193577;23;20008;-90
2023/01/23 02:17:02;;;;;;;18.50;12.32;;;2.80;99.90;;;;;;6217331;23;20096;-90
2023/01/23 02:19:37;;;;;;;19.00;12.93;;;2.80;99.90;;;;;;6193933;23;20037;-90
2023/01/23 02:22:20;;;;;;;21.08;13.23;;;2.90;99.90;;;;;;6193417;23;20078;-90
2023/01/23 02:25:15;;;;;;;18.85;12.80;;;2.80;99.90;;;;;;6227727;23;20072;-90
2023/01/23 02:27:40;;;;;;;23.33;13.13;;;2.80;99.90;;;;;;6143242;23;20043;-91
2023/01/23 02:30:07;;;;;;;18.73;11.95;;;2.80;99.90;;;;;;6217675;23;20020;-90
2023/01/23 02:32:34;;;;;;;19.38;12.40;;;2.80;99.90;;;;;;6192575;23;20019;-90
2023/01/23 02:35:09;;;;;;;18.00;13.02;;;2.80;99.90;;;;;;6193046;23;20016;-90
2023/01/23 02:37:36;;;;;;;25.35;13.35;;;2.80;99.90;;;;;;6217737;23;20016;-90
2023/01/23 02:40:02;;;;;;;20.83;13.57;;;2.80;99.90;;;;;;6218446;23;20511;-89
2023/01/23 02:42:29;;;;;;;21.10;14.65;;;2.80;99.90;;;;;;6217523;23;20016;-89
2023/01/23 02:44:56;;;;;;;19.77;14.35;;;2.80;99.90;;;;;;6218300;23;20070;-91
2023/01/23 02:47:22;;;;;;;23.10;13.52;;;2.80;99.90;;;;;;6192412;23;20016;-88
2023/01/23 02:49:48;;;;;;;20.67;14.30;;;2.80;99.90;;;;;;6192990;23;20008;-90
2023/01/23 02:52:17;;;;;;;20.95;14.52;;;2.80;99.90;;;;;;6192713;23;20100;-90
2023/01/23 02:54:42;;;;;;;22.88;14.70;;;2.80;99.90;;;;;;6192550;23;20088;-91
2023/01/23 02:57:08;;;;;;;20.85;14.75;;;2.80;99.90;;;;;;6192525;23;20320;-90
2023/01/23 03:02:18;;;;;;;24.02;14.15;;;2.80;99.90;;;;;;6217662;23;20131;-90
2023/01/23 03:04:44;;;;;;;22.48;14.32;;;2.80;99.90;;;;;;6218031;23;20068;-90
2023/01/23 03:07:09;;;;;;;19.30;14.68;;;2.80;99.90;;;;;;6193356;23;20104;-90
2023/01/23 03:09:35;;;;;;;20.83;14.43;;;2.80;99.90;;;;;;6218873;23;20025;-90
2023/01/23 03:12:01;;;;;;;21.02;15.07;;;3.10;99.90;;;;;;6195159;23;20009;-89
2023/01/23 03:14:28;;;;;;;22.77;14.68;;;2.80;99.90;;;;;;6234570;23;20320;-90
2023/01/23 03:16:54;;;;;;;22.90;14.95;;;2.80;99.90;;;;;;6192935;23;20335;-90
2023/01/23 03:19:22;;;;;;;22.15;14.50;;;2.80;99.90;;;;;;6217663;23;20009;-90
2023/01/23 03:21:49;;;;;;;24.15;15.10;;;2.80;99.90;;;;;;6193075;23;20036;-90
2023/01/23 03:24:15;;;;;;;22.58;15.13;;;2.80;99.90;;;;;;6192180;23;20016;-90
2023/01/23 03:26:42;;;;;;;21.10;15.20;;;2.80;99.90;;;;;;6192804;23;20020;-89
2023/01/23 03:32:02;;;;;;;26.00;16.13;;;2.80;99.90;;;;;;6216703;23;20091;-89
2023/01/23 03:34:28;;;;;;;23.33;16.17;;;2.80;99.90;;;;;;6193436;23;20321;-90
2023/01/23 03:36:54;;;;;;;24.10;16.40;;;3.00;99.90;;;;;;6192473;23;20009;-90
2023/01/23 03:42:04;;;;;;;21.17;15.73;;;2.70;99.90;;;;;;6218416;23;20059;-89
2023/01/23 03:44:29;;;;;;;25.98;17.48;;;2.70;99.90;;;;;;6217898;23;20024;-89
2023/01/23 03:46:55;;;;;;;26.10;16.65;;;2.70;99.90;;;;;;6192885;23;20013;-90
2023/01/23 03:49:21;;;;;;;30.17;16.70;;;2.90;99.90;;;;;;6191757;23;20059;-90
2023/01/23 03:51:46;;;;;;;22.45;16.88;;;2.70;99.90;;;;;;6193451;23;20008;-90
2023/01/23 03:54:13;;;;;;;25.40;17.25;;;2.80;99.90;;;;;;6218148;23;20012;-88
2023/01/23 03:56:40;;;;;;;26.90;16.58;;;2.70;99.90;;;;;;6216781;23;20089;-91
2023/01/23 03:59:05;;;;;;;25.13;16.98;;;2.70;99.90;;;;;;6193038;23;20013;-90
2023/01/23 04:01:31;;;;;;;23.52;15.40;;;2.70;99.90;;;;;;6211860;23;20038;-90
2023/01/23 04:03:56;;;;;;;21.48;16.40;;;2.70;99.90;;;;;;6194635;23;20016;-90
2023/01/23 04:06:22;;;;;;;22.60;17.08;;;2.70;99.90;;;;;;6191157;23;20024;-90
2023/01/23 04:08:48;;;;;;;23.58;17.10;;;2.70;99.90;;;;;;6193023;23;20092;-90
2023/01/23 04:11:13;;;;;;;24.05;17.13;;;2.70;99.90;;;;;;6191985;23;20013;-89
2023/01/23 04:13:39;;;;;;;24.42;17.48;;;2.80;99.90;;;;;;6191945;23;20027;-90
2023/01/23 04:16:05;;;;;;;23.25;17.40;;;2.70;99.90;;;;;;6191076;23;20062;-90
2023/01/23 04:18:31;;;;;;;24.55;16.88;;;2.80;99.90;;;;;;6191567;23;20025;-90
2023/01/23 04:20:57;;;;;;;23.63;17.73;;;2.70;99.90;;;;;;6192014;23;20013;-90
2023/01/23 04:23:23;;;;;;;24.40;16.83;;;2.70;99.90;;;;;;6191661;23;20040;-90
2023/01/23 04:25:49;;;;;;;23.65;17.73;;;2.70;99.90;;;;;;6217052;23;20017;-90
2023/01/23 04:28:15;;;;;;;24.20;17.25;;;2.70;99.90;;;;;;6193646;23;20013;-90
2023/01/23 04:30:41;;;;;;;23.08;16.88;;;2.70;99.90;;;;;;6190416;23;20016;-91
2023/01/23 04:33:07;;;;;;;25.05;17.85;;;2.70;99.90;;;;;;6188232;23;20012;-90
2023/01/23 04:35:33;;;;;;;25.33;16.40;;;2.70;99.90;;;;;;6188363;23;20048;-89
2023/01/23 04:37:59;;;;;;;23.58;17.75;;;2.70;99.90;;;;;;6188325;23;20317;-91
2023/01/23 04:40:25;;;;;;;26.77;17.17;;;2.70;99.90;;;;;;6213203;23;20016;-90
2023/01/23 04:42:50;;;;;;;22.67;16.25;;;2.70;99.90;;;;;;6213586;23;20036;-90
2023/01/23 04:45:16;;;;;;;24.75;17.92;;;2.70;99.90;;;;;;6188727;23;20013;-90
2023/01/23 04:47:42;;;;;;;24.05;17.35;;;2.70;99.90;;;;;;6222170;23;20012;-90
2023/01/23 04:50:08;;;;;;;22.02;16.75;;;3.30;99.90;;;;;;6199497;23;20015;-91
2023/01/23 04:52:33;;;;;;;25.30;17.20;;;2.70;99.90;;;;;;6188823;23;20158;-91
2023/01/23 04:54:59;;;;;;;22.27;16.15;;;2.70;99.90;;;;;;6212975;23;20017;-91
2023/01/23 04:57:25;;;;;;;24.55;17.88;;;2.70;99.90;;;;;;6213478;23;20013;-90
2023/01/23 04:59:50;;;;;;;21.92;17.27;;;2.70;99.90;;;;;;6213376;23;20016;-90
2023/01/23 05:02:16;;;;;;;24.38;16.80;;;2.90;99.90;;;;;;6188092;23;20452;-91
2023/01/23 05:04:42;;;;;;;22.35;16.20;;;2.60;99.90;;;;;;6213553;23;20072;-90
2023/01/23 05:07:11;;;;;;;23.98;16.60;;;2.70;99.90;;;;;;6188051;23;20019;-90
2023/01/23 05:09:37;;;;;;;22.83;16.38;;;2.60;99.90;;;;;;6213132;23;20009;-90
2023/01/23 05:12:04;;;;;;;28.98;16.98;;;2.70;99.90;;;;;;6188303;23;20103;-90
2023/01/23 05:14:30;;;;;;;23.50;17.17;;;2.60;99.90;;;;;;6187907;23;20083;-90
2023/01/23 05:16:55;;;;;;;23.08;18.52;;;2.60;99.90;;;;;;6187805;23;20024;-91
2023/01/23 05:19:22;;;;;;;27.10;17.42;;;2.60;99.90;;;;;;6189759;23;20016;-90
2023/01/23 05:21:48;;;;;;;25.98;21.45;;;2.70;99.90;;;;;;6215267;23;20013;-90
2023/01/23 05:24:13;;;;;;;24.50;21.63;;;2.60;99.90;;;;;;6213750;23;20131;-88
2023/01/23 05:26:39;;;;;;;24.45;18.55;;;2.80;99.90;;;;;;6189906;23;20012;-88
2023/01/23 05:29:05;;;;;;;23.00;18.40;;;2.60;99.90;;;;;;6189319;23;20012;-88
2023/01/23 05:31:30;;;;;;;23.70;16.65;;;2.70;99.90;;;;;;6214102;23;20051;-88
2023/01/23 05:33:56;;;;;;;22.83;16.50;;;2.60;99.90;;;;;;6188530;23;20020;-88
2023/01/23 05:36:22;;;;;;;21.05;16.02;;;2.60;99.90;;;;;;6195079;23;20016;-88
2023/01/23 05:38:47;;;;;;;23.58;15.43;;;2.60;99.90;;;;;;6214934;23;20027;-88
2023/01/23 05:41:13;;;;;;;22.40;16.20;;;2.70;99.90;;;;;;6188957;23;20082;-88
2023/01/23 05:43:38;;;;;;;18.38;14.18;;;2.90;99.90;;;;;;6214092;23;20051;-88
2023/01/23 05:46:04;;;;;;;23.35;15.02;;;2.70;99.90;;;;;;6189247;23;20032;-88
2023/01/23 05:48:30;;;;;;;18.08;14.88;;;2.60;99.90;;;;;;6214146;23;20013;-88
2023/01/23 05:50:55;;;;;;;21.45;15.15;;;2.60;99.90;;;;;;6188987;23;20004;-94
2023/01/23 05:53:21;;;;;;;20.83;15.02;;;2.70;99.90;;;;;;6189687;23;20031;-95
2023/01/23 05:55:46;;;;;;;20.98;15.25;;;2.90;99.90;;;;;;6189568;23;20021;-87
2023/01/23 05:58:12;;;;;;;20.55;15.05;;;2.60;99.90;;;;;;6187823;23;20470;-90
2023/01/23 06:00:38;;;;;;;22.15;15.82;;;2.60;99.90;;;;;;6213000;23;20030;-92
2023/01/23 06:03:05;;;;;;;21.50;15.60;;;2.60;99.90;;;;;;6214414;23;20121;-93
2023/01/23 06:05:32;;;;;;;23.20;15.75;;;2.60;99.90;;;;;;6214426;23;20019;-91
2023/01/23 06:07:58;;;;;;;22.90;17.63;;;3.10;99.90;;;;;;6214451;23;20009;-92
2023/01/23 06:10:24;;;;;;;22.20;16.63;;;2.50;99.90;;;;;;6189308;23;20096;-92
2023/01/23 06:12:49;;;;;;;22.98;16.77;;;3.00;99.90;;;;;;6188414;23;20349;-90
2023/01/23 06:15:15;;;;;;;29.13;17.23;;;2.80;99.90;;;;;;6186851;23;20015;-89
2023/01/23 06:17:40;;;;;;;25.98;16.25;;;2.50;99.90;;;;;;6192420;23;20447;-90
2023/01/23 06:20:07;;;;;;;23.55;16.88;;;2.80;99.90;;;;;;6194192;23;20356;-88
2023/01/23 06:22:32;;;;;;;26.33;18.00;;;2.50;99.90;;;;;;6190108;23;20016;-85
2023/01/23 06:24:58;;;;;;;26.67;17.50;;;2.50;99.90;;;;;;6219380;23;20347;-84
2023/01/23 06:27:24;;;;;;;27.40;18.75;;;2.50;99.90;;;;;;6213625;23;20284;-84
2023/01/23 06:29:49;;;;;;;25.17;17.00;;;2.50;99.90;;;;;;6215819;23;20025;-85
2023/01/23 06:32:15;;;;;;;24.10;17.42;;;2.80;99.90;;;;;;6189106;23;20013;-85
2023/01/23 06:34:40;;;;;;;25.33;18.58;;;2.50;99.90;;;;;;6189565;23;20009;-85
2023/01/23 06:37:06;;;;;;;25.23;17.13;;;2.50;99.90;;;;;;6213964;23;20016;-85
2023/01/23 06:39:33;;;;;;;27.33;17.77;;;2.50;99.90;;;;;;6214536;23;20059;-85
2023/01/23 06:41:58;;;;;;;24.75;17.90;;;2.50;99.90;;;;;;6214324;23;20008;-85
2023/01/23 06:44:24;;;;;;;24.27;17.60;;;2.50;99.90;;;;;;6214938;23;20016;-85
2023/01/23 06:46:52;;;;;;;21.15;16.63;;;2.50;99.90;;;;;;6216465;23;20031;-85
2023/01/23 06:49:17;;;;;;;22.02;17.27;;;2.50;99.90;;;;;;6214929;23;20012;-85
2023/01/23 06:51:43;;;;;;;24.88;17.52;;;2.50;99.90;;;;;;6188112;23;20031;-86
2023/01/23 06:54:09;;;;;;;23.90;17.45;;;2.60;99.90;;;;;;6188321;23;20085;-85
2023/01/23 06:56:34;;;;;;;22.27;17.33;;;2.50;99.90;;;;;;6188266;23;20044;-84
2023/01/23 06:59:00;;;;;;;25.77;17.48;;;2.60;99.90;;;;;;6188666;23;20016;-89
2023/01/23 07:01:27;;;;;;;25.52;17.75;;;2.50;99.90;;;;;;6193789;23;20013;-86
2023/01/23 07:03:53;;;;;;;27.67;17.92;;;2.50;99.90;;;;;;6194419;23;20064;-89
2023/01/23 07:06:19;;;;;;;23.58;16.90;;;2.50;99.90;;;;;;6192009;23;20063;-89
2023/01/23 07:08:44;;;;;;;24.00;17.17;;;2.50;99.90;;;;;;6185119;23;20268;-89
2023/01/23 07:11:10;;;;;;;32.65;17.85;;;2.50;99.90;;;;;;6212155;23;20068;-90
2023/01/23 07:13:36;;;;;;;32.40;18.13;;;2.80;99.90;;;;;;6186875;23;20012;-89
2023/01/23 07:16:03;;;;;;;22.13;16.05;;;2.50;99.90;;;;;;6188080;23;20027;-89
2023/01/23 07:18:29;;;;;;;24.50;16.58;;;2.50;99.90;;;;;;6188022;23;20091;-91
2023/01/23 07:20:55;;;;;;;26.27;16.85;;;2.50;99.90;;;;;;6185313;23;20048;-91
2023/01/23 07:23:21;;;;;;;24.38;16.48;;;2.50;99.90;;;;;;6187700;23;20451;-90
2023/01/23 07:25:46;;;;;;;22.25;16.90;;;2.60;99.90;;;;;;6188459;23;20091;-90
2023/01/23 07:28:12;;;;;;;21.20;16.42;;;2.50;99.90;;;;;;6186917;23;20051;-89
2023/01/23 07:30:38;;;;;;;20.08;16.30;;;2.60;99.90;;;;;;6213534;23;20020;-91
2023/01/23 07:33:04;;;;;;;20.38;15.93;;;2.80;99.90;;;;;;6214858;23;20059;-94
2023/01/23 07:35:29;;;;;;;21.15;15.05;;;2.50;99.90;;;;;;6189652;23;20013;-94
2023/01/23 07:37:55;;;;;;;20.08;15.00;;;2.50;99.90;;;;;;6189733;23;20016;-92
2023/01/23 07:40:21;;;;;;;19.45;14.88;;;2.50;99.90;;;;;;6187197;23;20019;-92
2023/01/23 07:42:47;;;;;;;21.50;15.73;;;2.50;99.90;;;;;;6213711;23;20067;-91
2023/01/23 07:45:13;;;;;;;22.98;14.77;;;2.50;99.90;;;;;;6188664;23;20020;-91
2023/01/23 07:47:39;;;;;;;21.50;14.35;;;2.70;99.90;;;;;;6189071;23;20044;-90
2023/01/23 07:50:10;;;;;;;20.70;15.02;;;2.50;99.90;;;;;;6188694;23;20012;-91
2023/01/23 07:52:36;;;;;;;22.17;15.57;;;2.50;99.90;;;;;;6214230;23;20023;-91
2023/01/23 07:55:03;;;;;;;18.33;15.27;;;2.80;99.90;;;;;;6189971;23;20032;-92
2023/01/23 07:57:29;;;;;;;19.38;13.98;;;2.50;99.90;;;;;;6191228;23;20012;-92
2023/01/23 07:59:54;;;;;;;17.70;14.43;;;2.60;99.90;;;;;;6203485;23;20012;-92
2023/01/23 08:02:20;;;;;;;20.50;15.23;;;3.00;99.90;;;;;;6189963;23;20004;-91
2023/01/23 08:04:46;;;;;;;19.10;13.98;;;2.60;99.90;;;;;;6188642;23;20098;-92
2023/01/23 08:07:11;;;;;;;20.05;13.60;;;2.60;99.90;;;;;;6214014;23;20016;-91
2023/01/23 08:09:37;;;;;;;15.27;13.18;;;2.60;99.90;;;;;;6188028;23;20005;-89
2023/01/23 08:12:03;;;;;;;19.40;14.05;;;2.60;99.90;;;;;;6187311;23;20016;-89
2023/01/23 08:14:29;;;;;;;18.42;13.57;;;2.60;99.90;;;;;;6188550;23;20086;-92
2023/01/23 08:16:55;;;;;;;16.92;13.98;;;2.90;99.90;;;;;;6189560;23;20471;-94
2023/01/23 08:19:24;;;;;;;19.17;12.73;;;2.60;99.90;;;;;;6186826;23;20012;-87
2023/01/23 08:21:49;;;;;;;18.05;12.75;;;2.60;99.90;;;;;;6187221;23;20013;-93
2023/01/23 08:24:15;;;;;;;16.98;13.15;;;2.70;99.90;;;;;;6189318;23;20048;-92
2023/01/23 08:26:41;;;;;;;16.25;13.50;;;3.10;99.90;;;;;;6213951;23;20013;-94
2023/01/23 08:29:07;;;;;;;15.68;12.70;;;2.70;99.90;;;;;;6189105;23;20019;-95
2023/01/23 08:31:34;;;;;;;16.40;13.10;;;2.70;99.90;;;;;;6189354;23;20008;-94
2023/01/23 08:34:00;;;;;;;18.63;12.65;;;2.70;99.90;;;;;;6188650;23;20444;-95
2023/01/23 08:36:26;;;;;;;17.83;13.48;;;3.10;99.90;;;;;;6215047;23;20016;-95
2023/01/23 08:38:52;;;;;;;16.92;13.15;;;2.90;99.90;;;;;;6189559;23;20023;-94
2023/01/23 08:41:17;;;;;;;22.92;13.25;;;2.80;99.90;;;;;;6189593;23;20012;-94
2023/01/23 08:43:43;;;;;;;17.38;13.45;;;2.80;99.90;;;;;;6224634;23;20403;-94
2023/01/23 08:46:10;;;;;;;19.17;12.63;;;2.80;99.90;;;;;;6230092;23;20080;-94
2023/01/23 08:48:36;;;;;;;18.67;12.90;;;2.80;99.90;;;;;;6233446;23;20456;-94
2023/01/23 08:51:12;;;;;;;16.40;12.60;;;2.90;99.90;;;;;;6217359;23;20059;-93
2023/01/23 08:53:39;;;;;;;17.08;12.35;;;3.40;99.90;;;;;;6189087;23;20132;-91
2023/01/23 08:56:15;;;;;;;16.38;11.65;;;2.90;99.90;;;;;;6187752;23;20012;-92
2023/01/23 08:58:41;;;;;;;18.25;11.93;;;2.90;99.90;;;;;;6187659;23;20016;-85
2023/01/23 09:01:18;;;;;;;16.80;11.90;;;3.00;99.90;;;;;;6210651;23;20012;-88
2023/01/23 09:03:43;;;;;;;15.48;10.45;;;3.00;99.90;;;;;;6212996;23;20027;-88
2023/01/23 09:06:11;;;;;;;14.52;10.95;;;3.00;99.90;;;;;;6187427;23;20401;-87
2023/01/23 09:08:36;;;;;;;14.77;10.82;;;3.00;99.90;;;;;;6188010;23;20094;-90
2023/01/23 09:11:05;;;;;;;13.20;10.55;;;3.00;99.90;;;;;;6186381;23;20024;-92
2023/01/23 09:13:31;;;;;;;15.40;10.68;;;3.10;99.90;;;;;;6188277;23;20054;-92
2023/01/23 09:15:57;;;;;;;15.55;10.75;;;3.10;99.90;;;;;;6213207;23;20012;-93
2023/01/23 09:18:26;;;;;;;12.88;10.23;;;3.10;99.90;;;;;;6188230;23;20012;-92
2023/01/23 09:20:53;;;;;;;19.02;10.30;;;3.10;99.90;;;;;;6187588;23;20386;-92
2023/01/23 09:23:22;;;;;;;12.88;10.02;;;3.20;99.90;;;;;;6188469;23;20067;-91
2023/01/23 09:25:48;;;;;;;14.98;9.90;;;3.20;99.90;;;;;;6188012;23;20013;-92
2023/01/23 09:28:13;;;;;;;11.90;9.52;;;3.30;99.90;;;;;;6213485;23;20331;-93
2023/01/23 09:30:39;;;;;;;14.75;9.70;;;3.20;99.90;;;;;;6213449;23;20392;-93
2023/01/23 09:33:05;;;;;;;10.90;9.75;;;3.30;99.90;;;;;;6213544;23;20012;-92
2023/01/23 09:35:31;;;;;;;13.68;10.43;;;3.30;99.90;;;;;;6213916;23;20009;-92
2023/01/23 09:38:00;;;;;;;18.42;13.13;;;3.30;99.90;;;;;;6205000;23;20491;-91
2023/01/23 09:40:49;;;;;;;12.05;8.95;;;3.40;99.90;;;;;;6190445;23;20052;-91
2023/01/23 09:43:38;;;;;;;16.17;12.18;;;3.40;99.90;;;;;;6213525;23;20075;-90
2023/01/23 09:46:10;;;;;;;17.30;14.75;;;3.40;99.90;;;;;;6187837;23;20020;-93
2023/01/23 09:48:43;;;;;;;14.65;10.68;;;3.50;99.90;;;;;;6213481;23;20008;-95
2023/01/23 09:51:11;;;;;;;11.50;9.45;;;3.50;99.90;;;;;;6214057;23;20008;-92
2023/01/23 09:53:39;;;;;;;10.43;8.95;;;3.50;99.90;;;;;;6212729;23;20088;-91
2023/01/23 09:56:04;;;;;;;13.65;9.60;;;3.60;99.90;;;;;;6238724;23;20017;-93
2023/01/23 09:58:38;;;;;;;16.85;14.88;;;3.50;99.90;;;;;;6187793;23;20016;-94
2023/01/23 10:01:04;;;;;;;12.02;10.35;;;3.60;99.90;;;;;;6212842;23;20009;-94
2023/01/23 10:03:31;;;;;;;12.00;10.80;;;3.60;99.90;;;;;;6213629;23;20424;-94
2023/01/23 10:06:05;;;;;;;13.65;10.68;;;3.60;99.90;;;;;;6189984;23;20013;-92
2023/01/23 10:08:49;;;;;;;11.02;9.68;;;3.90;99.90;;;;;;6188515;23;20020;-93
2023/01/23 10:11:33;;;;;;;11.10;8.93;;;3.70;99.90;;;;;;6214218;23;20044;-94
2023/01/23 10:14:01;;;;;;;11.60;8.90;;;3.60;99.90;;;;;;6239583;23;20047;-92
2023/01/23 10:16:29;;;;;;;9.70;8.38;;;3.70;99.90;;;;;;6214488;23;20340;-89
2023/01/23 10:19:36;;;;;;;10.40;8.68;;;3.60;99.90;;;;;;6187586;23;20035;-86
2023/01/23 10:22:17;;;;;;;14.38;9.20;;;3.70;99.90;;;;;;6214127;23;20023;-90
2023/01/23 10:24:50;;;;;;;12.20;9.05;;;3.70;99.90;;;;;;6216644;23;20097;-89
2023/01/23 10:27:29;;;;;;;10.57;9.38;;;4.00;99.90;;;;;;6231375;23;20017;-91
2023/01/23 10:30:23;;;;;;;13.10;9.75;;;3.90;99.90;;;;;;6243803;23;20088;-91
2023/01/23 10:32:59;;;;;;;12.53;9.97;;;3.90;99.90;;;;;;6179936;23;20016;-92
2023/01/23 10:35:36;;;;;;;15.50;10.50;;;3.90;99.90;;;;;;6213841;23;20020;-95
2023/01/23 10:38:21;;;;;;;13.43;10.52;;;3.80;99.90;;;;;;6188878;23;20023;-94
2023/01/23 10:43:32;;;;;;;12.90;10.50;;;3.90;99.90;;;;;;6215520;23;20024;-94
2023/01/23 10:45:57;;;;;;;15.00;11.32;;;4.00;99.90;;;;;;6187120;23;20476;-85
2023/01/23 10:48:26;;;;;;;11.23;9.95;;;3.90;99.90;;;;;;6213177;23;20447;-87
2023/01/23 10:50:51;;;;;;;14.82;11.02;;;3.90;99.90;;;;;;6188599;23;20024;-91
2023/01/23 10:53:20;;;;;;;12.93;10.75;;;3.90;99.90;;;;;;6188818;23;20016;-89
2023/01/23 10:55:47;;;;;;;12.98;11.55;;;4.00;99.90;;;;;;6214605;23;20036;-92
2023/01/23 10:58:30;;;;;;;15.18;10.82;;;4.00;99.90;;;;;;6188540;23;20059;-92
2023/01/23 11:00:56;;;;;;;15.00;11.00;;;4.10;99.90;;;;;;6214733;23;20460;-93
2023/01/23 11:03:29;;;;;;;16.08;11.05;;;4.10;99.90;;;;;;6189157;23;20012;-91
2023/01/23 11:06:01;;;;;;;14.02;12.13;;;4.00;99.90;;;;;;6188882;23;20013;-90
2023/01/23 11:08:47;;;;;;;14.15;10.82;;;4.10;99.90;;;;;;6213079;23;20036;-94
2023/01/23 11:11:21;;;;;;;12.95;11.52;;;4.10;99.90;;;;;;6187399;23;20008;-88
2023/01/23 11:14:07;;;;;;;13.90;11.57;;;4.10;99.90;;;;;;6213373;23;20024;-89
2023/01/23 11:16:34;;;;;;;15.00;11.70;;;4.10;99.90;;;;;;6197574;23;20017;-89
2023/01/23 11:19:10;;;;;;;14.63;12.38;;;4.10;99.90;;;;;;6191192;23;20111;-91
2023/01/23 11:21:59;;;;;;;17.95;13.48;;;4.20;99.90;;;;;;6188756;23;20023;-90
2023/01/23 11:24:35;;;;;;;15.98;13.13;;;4.10;99.90;;;;;;6188935;23;20017;-92
2023/01/23 11:27:26;;;;;;;16.67;13.45;;;4.10;99.90;;;;;;6188532;23;20016;-91
2023/01/23 11:30:07;;;;;;;15.88;12.07;;;4.10;99.90;;;;;;6213704;23;20455;-87
2023/01/23 11:32:45;;;;;;;14.88;12.30;;;4.20;99.90;;;;;;6213086;23;20013;-89
2023/01/23 11:35:15;;;;;;;16.63;12.80;;;4.40;99.90;;;;;;6213977;23;20008;-89
2023/01/23 11:37:41;;;;;;;16.23;12.38;;;4.30;99.90;;;;;;6213574;23;20023;-89
2023/01/23 11:40:18;;;;;;;16.33;13.13;;;4.30;99.90;;;;;;6188274;23;20045;-89
2023/01/23 11:42:45;;;;;;;16.33;12.68;;;4.30;99.90;;;;;;6209651;23;20070;-89
2023/01/23 11:45:53;;;;;;;22.50;13.13;;;4.30;99.90;;;;;;6187564;23;20020;-89
2023/01/23 11:48:38;;;;;;;17.52;14.90;;;4.30;99.90;;;;;;6210096;23;20449;-92
2023/01/23 11:51:16;;;;;;;18.50;15.50;;;4.30;99.90;;;;;;6213953;23;20313;-91
2023/01/23 11:54:09;;;;;;;15.55;12.52;;;4.40;99.90;;;;;;6188700;23;20475;-94
2023/01/23 11:56:51;;;;;;;20.65;13.93;;;4.40;99.90;;;;;;6187481;23;20052;-89
2023/01/23 11:59:39;;;;;;;16.02;13.02;;;4.40;99.90;;;;;;6187390;23;20092;-88
2023/01/23 12:02:26;;;;;;;18.27;13.57;;;4.50;99.90;;;;;;6187599;23;20439;-86
2023/01/23 12:05:17;;;;;;;15.10;12.98;;;4.50;99.90;;;;;;6195624;23;20023;-89
2023/01/23 12:08:12;;;;;;;16.02;13.90;;;4.50;99.90;;;;;;6188873;23;20534;-88
2023/01/23 12:11:12;;;;;;;17.10;12.98;;;4.40;99.90;;;;;;6186199;23;20199;-88
2023/01/23 12:14:11;;;;;;;23.20;16.58;;;4.40;99.90;;;;;;6200668;23;20039;-89
2023/01/23 12:16:59;;;;;;;17.35;13.93;;;4.30;99.90;;;;;;6186514;23;20071;-89
2023/01/23 12:19:38;;;;;;;17.55;14.43;;;4.30;99.90;;;;;;6187154;23;20016;-87
2023/01/23 12:22:15;;;;;;;18.65;15.88;;;4.30;99.90;;;;;;6188304;23;20066;-93
2023/01/23 12:25:12;;;;;;;20.85;15.40;;;4.30;99.90;;;;;;6212688;23;20009;-86
2023/01/23 12:27:43;;;;;;;18.48;14.82;;;4.30;99.90;;;;;;6211490;23;20062;-88
2023/01/23 12:30:14;;;;;;;19.48;15.40;;;4.30;99.90;;;;;;6186697;23;20028;-89
2023/01/23 12:32:59;;;;;;;18.13;15.35;;;4.20;99.90;;;;;;6212112;23;20037;-90
2023/01/23 12:35:36;;;;;;;19.58;15.70;;;4.20;99.90;;;;;;6187830;23;20067;-89
2023/01/23 12:38:20;;;;;;;20.23;16.45;;;4.20;99.90;;;;;;6188060;23;20057;-89
2023/01/23 12:41:23;;;;;;;19.05;15.82;;;4.20;99.90;;;;;;6187551;23;20099;-90
2023/01/23 12:44:11;;;;;;;19.15;16.05;;;4.20;99.90;;;;;;6187058;23;20069;-88
2023/01/23 12:47:00;;;;;;;19.23;16.30;;;4.20;99.90;;;;;;6187131;23;20158;-90
2023/01/23 12:49:38;;;;;;;22.65;16.67;;;4.20;99.90;;;;;;6211171;23;20404;-88
2023/01/23 12:52:14;;;;;;;19.50;16.17;;;4.20;99.90;;;;;;6210966;23;20016;-87
2023/01/23 12:54:49;;;;;;;18.48;16.33;;;4.30;99.90;;;;;;6190354;23;20079;-88
2023/01/23 12:57:38;;;;;;;19.60;17.42;;;4.40;99.90;;;;;;6212915;23;20048;-88
2023/01/23 13:00:08;;;;;;;20.83;16.25;;;4.20;99.90;;;;;;6213301;23;20024;-87
2023/01/23 13:02:41;;;;;;;18.25;15.15;;;4.20;99.90;;;;;;6187658;23;20020;-88